sensor_id;sensor_type;location;lat;lon;timestamp;P1;durP1;ratioP1;P2;durP2;ratioP2
15500;SDS011;7852;52.228;5.990;2022-07-29T00:03:05;3.1;;;1.5;;
15500;SDS011;7852;52.228;5.990;2022-07-29T00:03:05;3.1;;;1.6;;
15500;SDS011;7852;52.228;5.990;2022-07-29T00:03:10;3.3;;;1.3;;
15500;SDS011;7852;52.228;5.990;2022-07-29T00:03:14;2.1;;;1.2;;
15500;SDS011;7852;52.228;5.990;2022-07-29T00:04:14;3.4;;;1.6;;
15500;SDS011;7852;52.228;5.990;2022-07-29T00:05:14;1.7;;;1.3;;
15500;SDS011;7852;52.228;5.990;2022-07-29T00:06:14;2.2;;;1.4;;
15500;SDS011;7852;52.228;5.990;2022-07-29T00:07:14;1.7;;;1.3;;
15500;SDS011;7852;52.228;5.990;2022-07-29T00:08:14;1.8;;;1.4;;
15500;SDS011;7852;52.228;5.990;2022-07-29T00:09:14;2.8;;;1.6;;
15500;SDS011;7852;52.228;5.990;2022-07-29T00:10:14;1.6;;;1.2;;
15500;SDS011;7852;52.228;5.990;2022-07-29T00:11:14;2;;;1.4;;
15500;SDS011;7852;52.228;5.990;2022-07-29T00:12:14;3.7;;;1.5;;
15500;SDS011;7852;52.228;5.990;2022-07-29T00:13:14;2.9;;;1.4;;
15500;SDS011;7852;52.228;5.990;2022-07-29T00:14:14;3;;;1.5;;
15500;SDS011;7852;52.228;5.990;2022-07-29T00:15:14;2;;;1.3;;
15500;SDS011;7852;52.228;5.990;2022-07-29T00:16:14;4.3;;;1.6;;
15500;SDS011;7852;52.228;5.990;2022-07-29T00:17:14;2.7;;;1.4;;
15500;SDS011;7852;52.228;5.990;2022-07-29T00:18:14;2.3;;;1.6;;
15500;SDS011;7852;52.228;5.990;2022-07-29T00:19:14;1.7;;;1.4;;
15500;SDS011;7852;52.228;5.990;2022-07-29T00:20:14;3.7;;;1.4;;
15500;SDS011;7852;52.228;5.990;2022-07-29T00:21:14;2.1;;;1.4;;
15500;SDS011;7852;52.228;5.990;2022-07-29T00:22:14;2.9;;;1.7;;
15500;SDS011;7852;52.228;5.990;2022-07-29T00:23:14;2.7;;;1.5;;
15500;SDS011;7852;52.228;5.990;2022-07-29T00:24:14;2.4;;;1.7;;
15500;SDS011;7852;52.228;5.990;2022-07-29T00:25:14;3.3;;;1.8;;
15500;SDS011;7852;52.228;5.990;2022-07-29T00:26:14;2.7;;;1.9;;
15500;SDS011;7852;52.228;5.990;2022-07-29T00:27:14;2.6;;;1.6;;
15500;SDS011;7852;52.228;5.990;2022-07-29T00:28:14;2.3;;;1.5;;
15500;SDS011;7852;52.228;5.990;2022-07-29T00:29:14;1.8;;;1.4;;
15500;SDS011;7852;52.228;5.990;2022-07-29T00:30:14;2.1;;;1.4;;
15500;SDS011;7852;52.228;5.990;2022-07-29T00:31:14;3.3;;;1.9;;
15500;SDS011;7852;52.228;5.990;2022-07-29T00:32:14;2.6;;;1.6;;
15500;SDS011;7852;52.228;5.990;2022-07-29T00:33:14;3;;;1.4;;
15500;SDS011;7852;52.228;5.990;2022-07-29T00:34:14;3.1;;;1.6;;
15500;SDS011;7852;52.228;5.990;2022-07-29T00:35:14;3.5;;;1.5;;
15500;SDS011;7852;52.228;5.990;2022-07-29T00:36:18;5;;;1.6;;
15500;SDS011;7852;52.228;5.990;2022-07-29T00:37:14;2.1;;;1.5;;
15500;SDS011;7852;52.228;5.990;2022-07-29T00:38:15;2.7;;;1.6;;
15500;SDS011;7852;52.228;5.990;2022-07-29T00:39:14;2.7;;;1.8;;
15500;SDS011;7852;52.228;5.990;2022-07-29T00:40:14;2.1;;;1.5;;
15500;SDS011;7852;52.228;5.990;2022-07-29T00:41:14;2.7;;;1.7;;
15500;SDS011;7852;52.228;5.990;2022-07-29T00:42:14;4.2;;;1.7;;
15500;SDS011;7852;52.228;5.990;2022-07-29T00:43:14;2.6;;;1.5;;
15500;SDS011;7852;52.228;5.990;2022-07-29T00:44:14;3.3;;;1.7;;
15500;SDS011;7852;52.228;5.990;2022-07-29T00:45:14;3.3;;;1.9;;
15500;SDS011;7852;52.228;5.990;2022-07-29T00:46:14;3.7;;;1.8;;
15500;SDS011;7852;52.228;5.990;2022-07-29T00:47:14;2.2;;;1.6;;
15500;SDS011;7852;52.228;5.990;2022-07-29T00:48:14;3.1;;;1.5;;
15500;SDS011;7852;52.228;5.990;2022-07-29T00:49:14;3.7;;;1.8;;
15500;SDS011;7852;52.228;5.990;2022-07-29T00:50:14;2.2;;;1.6;;
15500;SDS011;7852;52.228;5.990;2022-07-29T00:51:14;1.6;;;1.5;;
15500;SDS011;7852;52.228;5.990;2022-07-29T00:52:14;1.9;;;1.6;;
15500;SDS011;7852;52.228;5.990;2022-07-29T00:53:14;2.8;;;1.8;;
15500;SDS011;7852;52.228;5.990;2022-07-29T00:54:14;2.2;;;1.9;;
15500;SDS011;7852;52.228;5.990;2022-07-29T00:55:15;3.2;;;1.9;;
15500;SDS011;7852;52.228;5.990;2022-07-29T00:56:14;1.9;;;1.6;;
15500;SDS011;7852;52.228;5.990;2022-07-29T00:57:14;3.8;;;2;;
15500;SDS011;7852;52.228;5.990;2022-07-29T00:58:14;2.5;;;1.7;;
15500;SDS011;7852;52.228;5.990;2022-07-29T00:59:14;3.9;;;2;;
15500;SDS011;7852;52.228;5.990;2022-07-29T01:00:15;2.3;;;1.7;;
15500;SDS011;7852;52.228;5.990;2022-07-29T01:01:14;8.2;;;1.9;;
15500;SDS011;7852;52.228;5.990;2022-07-29T01:02:14;3.4;;;1.8;;
15500;SDS011;7852;52.228;5.990;2022-07-29T01:03:14;3.3;;;1.9;;
15500;SDS011;7852;52.228;5.990;2022-07-29T01:04:14;3.3;;;1.9;;
15500;SDS011;7852;52.228;5.990;2022-07-29T01:05:15;2.5;;;1.8;;
15500;SDS011;7852;52.228;5.990;2022-07-29T01:06:14;3.2;;;2;;
15500;SDS011;7852;52.228;5.990;2022-07-29T01:07:14;2.6;;;1.8;;
15500;SDS011;7852;52.228;5.990;2022-07-29T01:08:15;3.4;;;1.7;;
15500;SDS011;7852;52.228;5.990;2022-07-29T01:09:14;2.9;;;2;;
15500;SDS011;7852;52.228;5.990;2022-07-29T01:10:14;3.3;;;1.9;;
15500;SDS011;7852;52.228;5.990;2022-07-29T01:11:14;2.9;;;1.9;;
15500;SDS011;7852;52.228;5.990;2022-07-29T01:12:15;4.8;;;2.2;;
15500;SDS011;7852;52.228;5.990;2022-07-29T01:13:14;4.2;;;2;;
15500;SDS011;7852;52.228;5.990;2022-07-29T01:14:14;3;;;1.8;;
15500;SDS011;7852;52.228;5.990;2022-07-29T01:15:14;3;;;1.8;;
15500;SDS011;7852;52.228;5.990;2022-07-29T01:16:15;2.5;;;2;;
15500;SDS011;7852;52.228;5.990;2022-07-29T01:17:16;3.5;;;1.8;;
15500;SDS011;7852;52.228;5.990;2022-07-29T01:18:16;3.2;;;1.9;;
15500;SDS011;7852;52.228;5.990;2022-07-29T01:19:19;2.5;;;1.8;;
15500;SDS011;7852;52.228;5.990;2022-07-29T01:20:16;2.3;;;2;;
15500;SDS011;7852;52.228;5.990;2022-07-29T01:22:19;3.4;;;2;;
15500;SDS011;7852;52.228;5.990;2022-07-29T01:23:24;3;;;2;;
15500;SDS011;7852;52.228;5.990;2022-07-29T01:24:19;2.8;;;2.1;;
15500;SDS011;7852;52.228;5.990;2022-07-29T01:25:18;2.9;;;1.8;;
15500;SDS011;7852;52.228;5.990;2022-07-29T01:26:33;4.9;;;2;;
15500;SDS011;7852;52.228;5.990;2022-07-29T01:27:20;1.8;;;1.6;;
15500;SDS011;7852;52.228;5.990;2022-07-29T01:28:28;2.5;;;2;;
15500;SDS011;7852;52.228;5.990;2022-07-29T01:29:16;3;;;1.8;;
15500;SDS011;7852;52.228;5.990;2022-07-29T01:30:14;4.2;;;2;;
15500;SDS011;7852;52.228;5.990;2022-07-29T01:31:16;3.2;;;2.3;;
15500;SDS011;7852;52.228;5.990;2022-07-29T01:32:15;3.8;;;2.3;;
15500;SDS011;7852;52.228;5.990;2022-07-29T01:33:15;3;;;1.8;;
15500;SDS011;7852;52.228;5.990;2022-07-29T01:34:16;5.3;;;2;;
15500;SDS011;7852;52.228;5.990;2022-07-29T01:35:15;2.7;;;1.8;;
15500;SDS011;7852;52.228;5.990;2022-07-29T01:36:16;2.7;;;1.8;;
15500;SDS011;7852;52.228;5.990;2022-07-29T01:37:15;4.1;;;2.2;;
15500;SDS011;7852;52.228;5.990;2022-07-29T01:38:16;2.2;;;1.9;;
15500;SDS011;7852;52.228;5.990;2022-07-29T01:39:16;2.7;;;2;;
15500;SDS011;7852;52.228;5.990;2022-07-29T01:40:18;2.8;;;1.9;;
15500;SDS011;7852;52.228;5.990;2022-07-29T01:41:15;2.4;;;1.8;;
15500;SDS011;7852;52.228;5.990;2022-07-29T01:42:15;3.1;;;2;;
15500;SDS011;7852;52.228;5.990;2022-07-29T01:43:15;5.6;;;2;;
15500;SDS011;7852;52.228;5.990;2022-07-29T01:44:15;4.3;;;1.9;;
15500;SDS011;7852;52.228;5.990;2022-07-29T01:45:15;3.4;;;2.2;;
15500;SDS011;7852;52.228;5.990;2022-07-29T01:46:15;2.7;;;1.8;;
15500;SDS011;7852;52.228;5.990;2022-07-29T01:47:15;3.2;;;1.8;;
15500;SDS011;7852;52.228;5.990;2022-07-29T01:48:15;4.8;;;2.2;;
15500;SDS011;7852;52.228;5.990;2022-07-29T01:49:16;4.4;;;2.1;;
15500;SDS011;7852;52.228;5.990;2022-07-29T01:50:15;4.3;;;2.2;;
15500;SDS011;7852;52.228;5.990;2022-07-29T01:51:15;2.7;;;1.6;;
15500;SDS011;7852;52.228;5.990;2022-07-29T01:52:15;3.5;;;2;;
15500;SDS011;7852;52.228;5.990;2022-07-29T01:53:16;2.6;;;1.9;;
15500;SDS011;7852;52.228;5.990;2022-07-29T01:54:16;2.4;;;1.9;;
15500;SDS011;7852;52.228;5.990;2022-07-29T01:55:14;2.9;;;1.9;;
15500;SDS011;7852;52.228;5.990;2022-07-29T01:56:14;4.3;;;1.8;;
15500;SDS011;7852;52.228;5.990;2022-07-29T01:57:15;3.9;;;1.8;;
15500;SDS011;7852;52.228;5.990;2022-07-29T01:58:14;2.6;;;1.8;;
15500;SDS011;7852;52.228;5.990;2022-07-29T01:59:14;3;;;1.9;;
15500;SDS011;7852;52.228;5.990;2022-07-29T02:00:14;4.8;;;2;;
15500;SDS011;7852;52.228;5.990;2022-07-29T02:01:14;3.3;;;1.7;;
15500;SDS011;7852;52.228;5.990;2022-07-29T02:02:15;3.2;;;2;;
15500;SDS011;7852;52.228;5.990;2022-07-29T02:03:14;2.4;;;1.7;;
15500;SDS011;7852;52.228;5.990;2022-07-29T02:04:15;3.6;;;2;;
15500;SDS011;7852;52.228;5.990;2022-07-29T02:05:15;3.8;;;2.1;;
15500;SDS011;7852;52.228;5.990;2022-07-29T02:06:15;2.9;;;2.1;;
15500;SDS011;7852;52.228;5.990;2022-07-29T02:07:15;2.5;;;2;;
15500;SDS011;7852;52.228;5.990;2022-07-29T02:08:14;5.1;;;2.3;;
15500;SDS011;7852;52.228;5.990;2022-07-29T02:09:14;2.8;;;2;;
15500;SDS011;7852;52.228;5.990;2022-07-29T02:10:14;3.8;;;1.8;;
15500;SDS011;7852;52.228;5.990;2022-07-29T02:11:14;2.5;;;1.9;;
15500;SDS011;7852;52.228;5.990;2022-07-29T02:12:14;3.5;;;2;;
15500;SDS011;7852;52.228;5.990;2022-07-29T02:13:15;3.1;;;2;;
15500;SDS011;7852;52.228;5.990;2022-07-29T02:14:14;3.1;;;1.9;;
15500;SDS011;7852;52.228;5.990;2022-07-29T02:15:14;4;;;2.3;;
15500;SDS011;7852;52.228;5.990;2022-07-29T02:16:14;2.5;;;1.6;;
15500;SDS011;7852;52.228;5.990;2022-07-29T02:17:15;3.3;;;2.1;;
15500;SDS011;7852;52.228;5.990;2022-07-29T02:18:15;3;;;2.1;;
15500;SDS011;7852;52.228;5.990;2022-07-29T02:19:14;2;;;1.8;;
15500;SDS011;7852;52.228;5.990;2022-07-29T02:20:14;2.8;;;1.9;;
15500;SDS011;7852;52.228;5.990;2022-07-29T02:21:14;4.5;;;2.1;;
15500;SDS011;7852;52.228;5.990;2022-07-29T02:22:14;2.2;;;2;;
15500;SDS011;7852;52.228;5.990;2022-07-29T02:23:15;2.7;;;1.9;;
15500;SDS011;7852;52.228;5.990;2022-07-29T02:24:14;4.8;;;2.3;;
15500;SDS011;7852;52.228;5.990;2022-07-29T02:25:14;4.5;;;1.8;;
15500;SDS011;7852;52.228;5.990;2022-07-29T02:26:14;2.3;;;1.9;;
15500;SDS011;7852;52.228;5.990;2022-07-29T02:27:14;3.4;;;1.9;;
15500;SDS011;7852;52.228;5.990;2022-07-29T02:28:14;2.9;;;1.9;;
15500;SDS011;7852;52.228;5.990;2022-07-29T02:29:14;2.3;;;1.7;;
15500;SDS011;7852;52.228;5.990;2022-07-29T02:30:14;4.3;;;2.2;;
15500;SDS011;7852;52.228;5.990;2022-07-29T02:31:14;2.2;;;1.8;;
15500;SDS011;7852;52.228;5.990;2022-07-29T02:32:14;2.1;;;1.7;;
15500;SDS011;7852;52.228;5.990;2022-07-29T02:33:15;4.8;;;2;;
15500;SDS011;7852;52.228;5.990;2022-07-29T02:34:14;2.2;;;2;;
15500;SDS011;7852;52.228;5.990;2022-07-29T02:35:14;3.1;;;2;;
15500;SDS011;7852;52.228;5.990;2022-07-29T02:36:14;2.7;;;1.8;;
15500;SDS011;7852;52.228;5.990;2022-07-29T02:37:14;3.7;;;1.9;;
15500;SDS011;7852;52.228;5.990;2022-07-29T02:38:15;4.7;;;2.2;;
15500;SDS011;7852;52.228;5.990;2022-07-29T02:39:14;4.3;;;2;;
15500;SDS011;7852;52.228;5.990;2022-07-29T02:40:14;2.9;;;2.1;;
15500;SDS011;7852;52.228;5.990;2022-07-29T02:41:23;3.3;;;1.9;;
15500;SDS011;7852;52.228;5.990;2022-07-29T02:42:15;3.1;;;2;;
15500;SDS011;7852;52.228;5.990;2022-07-29T02:43:14;4.1;;;1.9;;
15500;SDS011;7852;52.228;5.990;2022-07-29T02:44:15;2.9;;;2;;
15500;SDS011;7852;52.228;5.990;2022-07-29T02:45:14;2.5;;;2.2;;
15500;SDS011;7852;52.228;5.990;2022-07-29T02:46:16;2.3;;;1.9;;
15500;SDS011;7852;52.228;5.990;2022-07-29T02:47:17;2.5;;;2;;
15500;SDS011;7852;52.228;5.990;2022-07-29T02:48:14;3.4;;;2.1;;
15500;SDS011;7852;52.228;5.990;2022-07-29T02:49:15;2.3;;;2.1;;
15500;SDS011;7852;52.228;5.990;2022-07-29T02:50:15;2.7;;;2.2;;
15500;SDS011;7852;52.228;5.990;2022-07-29T02:51:16;2.6;;;2;;
15500;SDS011;7852;52.228;5.990;2022-07-29T02:52:16;3.1;;;2.1;;
15500;SDS011;7852;52.228;5.990;2022-07-29T02:53:15;3.4;;;1.7;;
15500;SDS011;7852;52.228;5.990;2022-07-29T02:54:18;3.1;;;1.9;;
15500;SDS011;7852;52.228;5.990;2022-07-29T02:55:15;5.4;;;2;;
15500;SDS011;7852;52.228;5.990;2022-07-29T02:56:14;2.7;;;2;;
15500;SDS011;7852;52.228;5.990;2022-07-29T02:57:16;3.3;;;2.2;;
15500;SDS011;7852;52.228;5.990;2022-07-29T02:58:15;4.4;;;2;;
15500;SDS011;7852;52.228;5.990;2022-07-29T02:59:14;3.2;;;2;;
15500;SDS011;7852;52.228;5.990;2022-07-29T03:00:14;2.5;;;2.3;;
15500;SDS011;7852;52.228;5.990;2022-07-29T03:01:15;3.9;;;2.1;;
15500;SDS011;7852;52.228;5.990;2022-07-29T03:02:14;2.9;;;2.1;;
15500;SDS011;7852;52.228;5.990;2022-07-29T03:03:15;3.3;;;2;;
15500;SDS011;7852;52.228;5.990;2022-07-29T03:04:14;3.5;;;2.1;;
15500;SDS011;7852;52.228;5.990;2022-07-29T03:05:16;2.7;;;1.8;;
15500;SDS011;7852;52.228;5.990;2022-07-29T03:06:14;3.2;;;2;;
15500;SDS011;7852;52.228;5.990;2022-07-29T03:07:15;4.1;;;2;;
15500;SDS011;7852;52.228;5.990;2022-07-29T03:08:14;3.7;;;2.3;;
15500;SDS011;7852;52.228;5.990;2022-07-29T03:09:14;3.4;;;2.5;;
15500;SDS011;7852;52.228;5.990;2022-07-29T03:10:14;4.7;;;2.3;;
15500;SDS011;7852;52.228;5.990;2022-07-29T03:11:14;3.4;;;2.2;;
15500;SDS011;7852;52.228;5.990;2022-07-29T03:12:14;2.5;;;1.8;;
15500;SDS011;7852;52.228;5.990;2022-07-29T03:13:14;3.6;;;2.4;;
15500;SDS011;7852;52.228;5.990;2022-07-29T03:14:14;3.3;;;2.1;;
15500;SDS011;7852;52.228;5.990;2022-07-29T03:15:14;3.5;;;2.3;;
15500;SDS011;7852;52.228;5.990;2022-07-29T03:16:14;4.3;;;2;;
15500;SDS011;7852;52.228;5.990;2022-07-29T03:17:14;2.1;;;1.9;;
15500;SDS011;7852;52.228;5.990;2022-07-29T03:18:14;3.3;;;2;;
15500;SDS011;7852;52.228;5.990;2022-07-29T03:19:14;2.2;;;1.9;;
15500;SDS011;7852;52.228;5.990;2022-07-29T03:20:14;2.3;;;1.9;;
15500;SDS011;7852;52.228;5.990;2022-07-29T03:21:14;2.5;;;1.8;;
15500;SDS011;7852;52.228;5.990;2022-07-29T03:22:14;3.6;;;2.1;;
15500;SDS011;7852;52.228;5.990;2022-07-29T03:23:18;3.1;;;2;;
15500;SDS011;7852;52.228;5.990;2022-07-29T03:24:32;4;;;2;;
15500;SDS011;7852;52.228;5.990;2022-07-29T03:25:15;4.4;;;2.2;;
15500;SDS011;7852;52.228;5.990;2022-07-29T03:26:14;2.1;;;1.9;;
15500;SDS011;7852;52.228;5.990;2022-07-29T03:27:14;2.7;;;2.1;;
15500;SDS011;7852;52.228;5.990;2022-07-29T03:28:14;2.9;;;2;;
15500;SDS011;7852;52.228;5.990;2022-07-29T03:29:14;3.1;;;2.1;;
15500;SDS011;7852;52.228;5.990;2022-07-29T03:30:14;2.3;;;1.7;;
15500;SDS011;7852;52.228;5.990;2022-07-29T03:31:14;3;;;1.9;;
15500;SDS011;7852;52.228;5.990;2022-07-29T03:32:14;2.5;;;1.9;;
15500;SDS011;7852;52.228;5.990;2022-07-29T03:33:14;3.6;;;2.1;;
15500;SDS011;7852;52.228;5.990;2022-07-29T03:34:14;3.6;;;2.1;;
15500;SDS011;7852;52.228;5.990;2022-07-29T03:35:14;2.5;;;1.9;;
15500;SDS011;7852;52.228;5.990;2022-07-29T03:36:14;4.8;;;2;;
15500;SDS011;7852;52.228;5.990;2022-07-29T03:37:14;2.5;;;1.9;;
15500;SDS011;7852;52.228;5.990;2022-07-29T03:38:14;2.6;;;1.9;;
15500;SDS011;7852;52.228;5.990;2022-07-29T03:39:15;2.6;;;2.1;;
15500;SDS011;7852;52.228;5.990;2022-07-29T03:40:16;3.6;;;1.7;;
15500;SDS011;7852;52.228;5.990;2022-07-29T03:41:14;4.7;;;2.2;;
15500;SDS011;7852;52.228;5.990;2022-07-29T03:42:15;4;;;2.1;;
15500;SDS011;7852;52.228;5.990;2022-07-29T03:43:15;3.5;;;1.9;;
15500;SDS011;7852;52.228;5.990;2022-07-29T03:44:15;2.8;;;2;;
15500;SDS011;7852;52.228;5.990;2022-07-29T03:45:17;4.9;;;2.3;;
15500;SDS011;7852;52.228;5.990;2022-07-29T03:46:14;2.8;;;1.8;;
15500;SDS011;7852;52.228;5.990;2022-07-29T03:47:14;3.2;;;2;;
15500;SDS011;7852;52.228;5.990;2022-07-29T03:48:15;3.2;;;1.8;;
15500;SDS011;7852;52.228;5.990;2022-07-29T03:49:14;4;;;2.1;;
15500;SDS011;7852;52.228;5.990;2022-07-29T03:50:14;3.2;;;2;;
15500;SDS011;7852;52.228;5.990;2022-07-29T03:51:14;2.3;;;2;;
15500;SDS011;7852;52.228;5.990;2022-07-29T03:52:14;2.9;;;2.2;;
15500;SDS011;7852;52.228;5.990;2022-07-29T03:53:14;2.5;;;2.1;;
15500;SDS011;7852;52.228;5.990;2022-07-29T03:54:14;2.9;;;2;;
15500;SDS011;7852;52.228;5.990;2022-07-29T03:55:14;3.1;;;1.8;;
15500;SDS011;7852;52.228;5.990;2022-07-29T03:56:15;3.2;;;1.8;;
15500;SDS011;7852;52.228;5.990;2022-07-29T03:57:14;3.3;;;2.1;;
15500;SDS011;7852;52.228;5.990;2022-07-29T03:58:14;6.4;;;2.1;;
15500;SDS011;7852;52.228;5.990;2022-07-29T03:59:15;4.1;;;2.2;;
15500;SDS011;7852;52.228;5.990;2022-07-29T04:00:14;5.1;;;1.9;;
15500;SDS011;7852;52.228;5.990;2022-07-29T04:01:14;2.9;;;2.1;;
15500;SDS011;7852;52.228;5.990;2022-07-29T04:02:14;3.1;;;2;;
15500;SDS011;7852;52.228;5.990;2022-07-29T04:03:14;2.8;;;2.1;;
15500;SDS011;7852;52.228;5.990;2022-07-29T04:04:14;2.1;;;1.6;;
15500;SDS011;7852;52.228;5.990;2022-07-29T04:05:14;2.8;;;1.9;;
15500;SDS011;7852;52.228;5.990;2022-07-29T04:06:14;5.6;;;2.4;;
15500;SDS011;7852;52.228;5.990;2022-07-29T04:07:15;2.8;;;2;;
15500;SDS011;7852;52.228;5.990;2022-07-29T04:08:14;3.4;;;1.9;;
15500;SDS011;7852;52.228;5.990;2022-07-29T04:09:14;2.7;;;2;;
15500;SDS011;7852;52.228;5.990;2022-07-29T04:10:14;3.4;;;2.3;;
15500;SDS011;7852;52.228;5.990;2022-07-29T04:11:14;2.4;;;1.9;;
15500;SDS011;7852;52.228;5.990;2022-07-29T04:12:14;3.3;;;2.1;;
15500;SDS011;7852;52.228;5.990;2022-07-29T04:13:14;6.5;;;2.5;;
15500;SDS011;7852;52.228;5.990;2022-07-29T04:14:14;2.9;;;1.9;;
15500;SDS011;7852;52.228;5.990;2022-07-29T04:15:14;3.4;;;2.2;;
15500;SDS011;7852;52.228;5.990;2022-07-29T04:16:14;2.8;;;2;;
15500;SDS011;7852;52.228;5.990;2022-07-29T04:17:14;3.5;;;2.1;;
15500;SDS011;7852;52.228;5.990;2022-07-29T04:18:14;5.3;;;2.2;;
15500;SDS011;7852;52.228;5.990;2022-07-29T04:19:14;5;;;2.3;;
15500;SDS011;7852;52.228;5.990;2022-07-29T04:20:14;3.7;;;2.2;;
15500;SDS011;7852;52.228;5.990;2022-07-29T04:21:14;2.8;;;2;;
15500;SDS011;7852;52.228;5.990;2022-07-29T04:22:14;2.9;;;2.3;;
15500;SDS011;7852;52.228;5.990;2022-07-29T04:23:14;3.1;;;2.4;;
15500;SDS011;7852;52.228;5.990;2022-07-29T04:24:14;2.4;;;2.1;;
15500;SDS011;7852;52.228;5.990;2022-07-29T04:25:14;3.2;;;2.2;;
15500;SDS011;7852;52.228;5.990;2022-07-29T04:26:14;3.8;;;2.4;;
15500;SDS011;7852;52.228;5.990;2022-07-29T04:27:14;2.4;;;2.2;;
15500;SDS011;7852;52.228;5.990;2022-07-29T04:28:14;2.6;;;2.4;;
15500;SDS011;7852;52.228;5.990;2022-07-29T04:29:14;3.4;;;2.2;;
15500;SDS011;7852;52.228;5.990;2022-07-29T04:30:14;4.3;;;2.7;;
15500;SDS011;7852;52.228;5.990;2022-07-29T04:31:14;4;;;2.4;;
15500;SDS011;7852;52.228;5.990;2022-07-29T04:32:14;3.5;;;2.4;;
15500;SDS011;7852;52.228;5.990;2022-07-29T04:33:14;3.4;;;2.6;;
15500;SDS011;7852;52.228;5.990;2022-07-29T04:34:14;3;;;2.5;;
15500;SDS011;7852;52.228;5.990;2022-07-29T04:35:14;3.7;;;2.4;;
15500;SDS011;7852;52.228;5.990;2022-07-29T04:36:14;2.7;;;2.5;;
15500;SDS011;7852;52.228;5.990;2022-07-29T04:37:14;2.9;;;2.4;;
15500;SDS011;7852;52.228;5.990;2022-07-29T04:38:14;3.1;;;2.7;;
15500;SDS011;7852;52.228;5.990;2022-07-29T04:39:14;2.6;;;2.2;;
15500;SDS011;7852;52.228;5.990;2022-07-29T04:40:14;3.2;;;2.3;;
15500;SDS011;7852;52.228;5.990;2022-07-29T04:41:14;5.9;;;2.9;;
15500;SDS011;7852;52.228;5.990;2022-07-29T04:42:14;4.2;;;2.5;;
15500;SDS011;7852;52.228;5.990;2022-07-29T04:43:14;3.9;;;2.3;;
15500;SDS011;7852;52.228;5.990;2022-07-29T04:44:14;3.2;;;2.7;;
15500;SDS011;7852;52.228;5.990;2022-07-29T04:45:14;3.4;;;2.5;;
15500;SDS011;7852;52.228;5.990;2022-07-29T04:46:14;3.1;;;2.5;;
15500;SDS011;7852;52.228;5.990;2022-07-29T04:47:14;3.1;;;2.3;;
15500;SDS011;7852;52.228;5.990;2022-07-29T04:48:14;4.1;;;2.6;;
15500;SDS011;7852;52.228;5.990;2022-07-29T04:49:14;3.7;;;2.8;;
15500;SDS011;7852;52.228;5.990;2022-07-29T04:50:14;3;;;2.7;;
15500;SDS011;7852;52.228;5.990;2022-07-29T04:51:14;3.3;;;2.6;;
15500;SDS011;7852;52.228;5.990;2022-07-29T04:52:14;4.3;;;2.7;;
15500;SDS011;7852;52.228;5.990;2022-07-29T04:53:14;4.1;;;3;;
15500;SDS011;7852;52.228;5.990;2022-07-29T04:54:14;3.7;;;2.9;;
15500;SDS011;7852;52.228;5.990;2022-07-29T04:55:14;4.7;;;2.7;;
15500;SDS011;7852;52.228;5.990;2022-07-29T04:56:14;3.6;;;2.3;;
15500;SDS011;7852;52.228;5.990;2022-07-29T04:57:14;3.4;;;2.5;;
15500;SDS011;7852;52.228;5.990;2022-07-29T04:58:14;4.4;;;2.5;;
15500;SDS011;7852;52.228;5.990;2022-07-29T04:59:14;4;;;2.8;;
15500;SDS011;7852;52.228;5.990;2022-07-29T05:00:14;7.2;;;3.2;;
15500;SDS011;7852;52.228;5.990;2022-07-29T05:01:14;3.4;;;2.6;;
15500;SDS011;7852;52.228;5.990;2022-07-29T05:02:14;5.4;;;3.2;;
15500;SDS011;7852;52.228;5.990;2022-07-29T05:03:14;5.1;;;3.1;;
15500;SDS011;7852;52.228;5.990;2022-07-29T05:04:14;4.5;;;3.1;;
15500;SDS011;7852;52.228;5.990;2022-07-29T05:05:14;4.6;;;3.3;;
15500;SDS011;7852;52.228;5.990;2022-07-29T05:06:14;5.5;;;3.1;;
15500;SDS011;7852;52.228;5.990;2022-07-29T05:07:14;3.8;;;3.3;;
15500;SDS011;7852;52.228;5.990;2022-07-29T05:08:14;4.9;;;3.2;;
15500;SDS011;7852;52.228;5.990;2022-07-29T05:09:14;4;;;3.1;;
15500;SDS011;7852;52.228;5.990;2022-07-29T05:10:14;5.1;;;3.2;;
15500;SDS011;7852;52.228;5.990;2022-07-29T05:11:14;4.6;;;3.3;;
15500;SDS011;7852;52.228;5.990;2022-07-29T05:12:14;5.5;;;3.3;;
15500;SDS011;7852;52.228;5.990;2022-07-29T05:13:14;4.5;;;3.3;;
15500;SDS011;7852;52.228;5.990;2022-07-29T05:14:14;3.2;;;2.9;;
15500;SDS011;7852;52.228;5.990;2022-07-29T05:15:14;4.9;;;3.6;;
15500;SDS011;7852;52.228;5.990;2022-07-29T05:16:14;7.7;;;3.4;;
15500;SDS011;7852;52.228;5.990;2022-07-29T05:17:14;5.4;;;3.5;;
15500;SDS011;7852;52.228;5.990;2022-07-29T05:18:14;5.3;;;2.9;;
15500;SDS011;7852;52.228;5.990;2022-07-29T05:19:14;6.1;;;3.4;;
15500;SDS011;7852;52.228;5.990;2022-07-29T05:20:14;5.2;;;3.4;;
15500;SDS011;7852;52.228;5.990;2022-07-29T05:21:14;6;;;3.3;;
15500;SDS011;7852;52.228;5.990;2022-07-29T05:22:14;6.4;;;3.1;;
15500;SDS011;7852;52.228;5.990;2022-07-29T05:23:14;5.3;;;3.1;;
15500;SDS011;7852;52.228;5.990;2022-07-29T05:24:14;3.8;;;2.9;;
15500;SDS011;7852;52.228;5.990;2022-07-29T05:25:14;4.7;;;3.4;;
15500;SDS011;7852;52.228;5.990;2022-07-29T05:26:14;5.2;;;3.3;;
15500;SDS011;7852;52.228;5.990;2022-07-29T05:27:14;5.3;;;3.5;;
15500;SDS011;7852;52.228;5.990;2022-07-29T05:28:14;4.4;;;3.2;;
15500;SDS011;7852;52.228;5.990;2022-07-29T05:29:14;5.9;;;3.5;;
15500;SDS011;7852;52.228;5.990;2022-07-29T05:30:14;4.9;;;3.6;;
15500;SDS011;7852;52.228;5.990;2022-07-29T05:31:14;4.4;;;3.5;;
15500;SDS011;7852;52.228;5.990;2022-07-29T05:32:14;4.5;;;3;;
15500;SDS011;7852;52.228;5.990;2022-07-29T05:33:14;5.2;;;3.4;;
15500;SDS011;7852;52.228;5.990;2022-07-29T05:34:14;6.5;;;3.9;;
15500;SDS011;7852;52.228;5.990;2022-07-29T05:35:14;5.6;;;3.4;;
15500;SDS011;7852;52.228;5.990;2022-07-29T05:36:14;6.3;;;3.6;;
15500;SDS011;7852;52.228;5.990;2022-07-29T05:37:14;6.1;;;3.3;;
15500;SDS011;7852;52.228;5.990;2022-07-29T05:38:14;3.5;;;3.2;;
15500;SDS011;7852;52.228;5.990;2022-07-29T05:39:14;5.4;;;3;;
15500;SDS011;7852;52.228;5.990;2022-07-29T05:40:14;4.3;;;3.1;;
15500;SDS011;7852;52.228;5.990;2022-07-29T05:41:15;5.1;;;3.3;;
15500;SDS011;7852;52.228;5.990;2022-07-29T05:42:14;5.1;;;3.2;;
15500;SDS011;7852;52.228;5.990;2022-07-29T05:43:14;4.1;;;3.4;;
15500;SDS011;7852;52.228;5.990;2022-07-29T05:44:14;5.7;;;3.3;;
15500;SDS011;7852;52.228;5.990;2022-07-29T05:45:14;4.9;;;3;;
15500;SDS011;7852;52.228;5.990;2022-07-29T05:46:14;4.2;;;3.1;;
15500;SDS011;7852;52.228;5.990;2022-07-29T05:47:14;3.5;;;2.8;;
15500;SDS011;7852;52.228;5.990;2022-07-29T05:48:14;5.7;;;3.5;;
15500;SDS011;7852;52.228;5.990;2022-07-29T05:49:14;11.5;;;8.4;;
15500;SDS011;7852;52.228;5.990;2022-07-29T05:50:14;58.1;;;41.3;;
15500;SDS011;7852;52.228;5.990;2022-07-29T05:51:14;33.4;;;26.2;;
15500;SDS011;7852;52.228;5.990;2022-07-29T05:52:14;11;;;8.2;;
15500;SDS011;7852;52.228;5.990;2022-07-29T05:53:14;7;;;5.2;;
15500;SDS011;7852;52.228;5.990;2022-07-29T05:54:14;8.4;;;6.6;;
15500;SDS011;7852;52.228;5.990;2022-07-29T05:55:14;7.1;;;4.2;;
15500;SDS011;7852;52.228;5.990;2022-07-29T05:56:14;4.6;;;3.6;;
15500;SDS011;7852;52.228;5.990;2022-07-29T05:57:15;4;;;3.6;;
15500;SDS011;7852;52.228;5.990;2022-07-29T05:58:14;5.5;;;3.8;;
15500;SDS011;7852;52.228;5.990;2022-07-29T05:59:14;6.3;;;3.4;;
15500;SDS011;7852;52.228;5.990;2022-07-29T06:00:15;4.3;;;3.6;;
15500;SDS011;7852;52.228;5.990;2022-07-29T06:01:14;5;;;3.9;;
15500;SDS011;7852;52.228;5.990;2022-07-29T06:02:14;4.9;;;3.7;;
15500;SDS011;7852;52.228;5.990;2022-07-29T06:03:14;5.1;;;3.3;;
15500;SDS011;7852;52.228;5.990;2022-07-29T06:04:14;6.1;;;3.4;;
15500;SDS011;7852;52.228;5.990;2022-07-29T06:05:14;5.4;;;3.3;;
15500;SDS011;7852;52.228;5.990;2022-07-29T06:06:14;3.6;;;3;;
15500;SDS011;7852;52.228;5.990;2022-07-29T06:07:14;6.8;;;3.7;;
15500;SDS011;7852;52.228;5.990;2022-07-29T06:08:14;4;;;3.1;;
15500;SDS011;7852;52.228;5.990;2022-07-29T06:09:14;5.9;;;3.6;;
15500;SDS011;7852;52.228;5.990;2022-07-29T06:10:14;4.4;;;3.5;;
15500;SDS011;7852;52.228;5.990;2022-07-29T06:11:14;4.9;;;3.1;;
15500;SDS011;7852;52.228;5.990;2022-07-29T06:12:14;5.4;;;3.6;;
15500;SDS011;7852;52.228;5.990;2022-07-29T06:13:14;5.1;;;3.6;;
15500;SDS011;7852;52.228;5.990;2022-07-29T06:14:14;3.9;;;3.3;;
15500;SDS011;7852;52.228;5.990;2022-07-29T06:15:14;5.3;;;3.7;;
15500;SDS011;7852;52.228;5.990;2022-07-29T06:16:14;6.6;;;4;;
15500;SDS011;7852;52.228;5.990;2022-07-29T06:17:15;6.2;;;3.5;;
15500;SDS011;7852;52.228;5.990;2022-07-29T06:18:14;4.7;;;3.3;;
15500;SDS011;7852;52.228;5.990;2022-07-29T06:19:14;4.8;;;3.5;;
15500;SDS011;7852;52.228;5.990;2022-07-29T06:20:14;5;;;3.3;;
15500;SDS011;7852;52.228;5.990;2022-07-29T06:21:14;4.5;;;3.2;;
15500;SDS011;7852;52.228;5.990;2022-07-29T06:22:14;6.9;;;3.7;;